Time;durP1;ratioP1;P1;durP2;ratioP2;P2;SDS_P1;SDS_P2;PMS_P1;PMS_P2;Temp;Humidity;BMP_temperature;BMP_pressure;BME280_temperature;BME280_humidity;BME280_pressure;Samples;Min_cycle;Max_cycle;Signal;HPM_P1;HPM_P2
2023/10/06 00:00:19;;;;;;;13.80;8.60;;;;;;;17.39;66.45;100100.28;5073370;28;20223;-73
2023/10/06 00:02:48;;;;;;;12.47;8.50;;;;;;;17.43;67.35;100094.25;5074954;28;20198;-70
2023/10/06 00:05:14;;;;;;;18.60;9.10;;;;;;;17.74;67.50;100095.91;5075710;28;20282;-70
2023/10/06 00:07:41;;;;;;;13.33;8.27;;;;;;;18.11;66.82;100089.38;5075483;28;20192;-70
2023/10/06 00:10:16;;;;;;;18.40;8.37;;;;;;;18.48;64.34;100102.47;5075435;28;20193;-71
2023/10/06 00:12:47;;;;;;;15.13;9.13;;;;;;;18.70;63.43;100100.84;5075235;28;20186;-70
2023/10/06 00:15:20;;;;;;;12.90;8.57;;;;;;;18.92;62.83;100095.69;5075586;28;20314;-71
2023/10/06 00:17:49;;;;;;;15.63;9.83;;;;;;;19.13;61.36;100092.41;5075442;28;20316;-70
2023/10/06 00:20:25;;;;;;;13.50;8.70;;;;;;;19.23;60.53;100090.78;5075039;28;20696;-71
2023/10/06 00:22:54;;;;;;;22.97;9.33;;;;;;;19.25;60.69;100098.63;5075445;28;20229;-71
2023/10/06 00:25:24;;;;;;;22.27;9.83;;;;;;;19.30;60.16;100096.03;5074693;28;20286;-70
2023/10/06 00:27:50;;;;;;;19.83;9.20;;;;;;;19.34;60.78;100092.63;5074829;28;20705;-70
2023/10/06 00:30:20;;;;;;;18.43;9.40;;;;;;;19.39;60.24;100089.22;5075149;28;20218;-70
2023/10/06 00:32:47;;;;;;;23.07;9.47;;;;;;;19.39;60.30;100090.03;5075150;28;20207;-71
2023/10/06 00:35:15;;;;;;;12.90;8.03;;;;;;;19.48;60.23;100093.19;5074979;28;20218;-70
2023/10/06 00:37:43;;;;;;;18.33;9.47;;;;;;;19.51;59.65;100088.13;5075240;28;20196;-70
2023/10/06 00:40:11;;;;;;;14.87;8.27;;;;;;;19.48;61.33;100087.78;5074877;28;20192;-70
2023/10/06 00:42:38;;;;;;;12.67;8.60;;;;;;;19.61;61.02;100099.09;5074617;28;20188;-69
2023/10/06 00:45:07;;;;;;;12.93;8.13;;;;;;;19.90;58.92;100098.03;5074897;28;20279;-70
2023/10/06 00:47:38;;;;;;;14.33;9.00;;;;;;;19.92;57.73;100095.09;5074875;28;20203;-70
2023/10/06 00:50:06;;;;;;;14.77;8.57;;;;;;;19.85;58.12;100095.25;5074817;28;20181;-70
2023/10/06 00:52:33;;;;;;;15.00;9.17;;;;;;;19.86;57.95;100096.09;5074402;28;20239;-72
2023/10/06 00:55:02;;;;;;;14.93;9.17;;;;;;;19.81;58.28;100087.91;5074514;28;20227;-70
2023/10/06 00:57:29;;;;;;;13.33;8.27;;;;;;;19.73;58.30;100080.19;5073531;28;20740;-71
2023/10/06 00:59:57;;;;;;;10.67;8.53;;;;;;;19.59;59.06;100076.13;5074249;28;20246;-70
2023/10/06 01:02:24;;;;;;;15.87;8.80;;;;;;;19.43;59.60;100063.41;5074184;28;20564;-70
2023/10/06 01:04:53;;;;;;;16.90;9.13;;;;;;;19.34;60.33;100081.03;5074303;28;20192;-71
2023/10/06 01:07:24;;;;;;;17.53;9.20;;;;;;;19.25;60.27;100072.50;5074110;28;20290;-70
2023/10/06 01:09:59;;;;;;;12.17;8.17;;;;;;;19.20;60.00;100074.25;5074409;28;20194;-71
2023/10/06 01:12:26;;;;;;;14.33;8.77;;;;;;;19.05;62.07;100071.22;5074124;28;20241;-71
2023/10/06 01:15:05;;;;;;;12.67;8.60;;;;;;;19.05;61.09;100071.22;5074065;28;20237;-71
2023/10/06 01:17:33;;;;;;;14.43;7.60;;;;;;;19.03;62.40;100065.25;5074070;28;20706;-71
2023/10/06 01:20:03;;;;;;;17.00;7.60;;;;;;;19.11;62.70;100067.59;5073830;28;20187;-72
2023/10/06 01:22:41;;;;;;;14.10;9.03;;;;;;;19.30;60.32;100074.47;5074304;28;20616;-71
2023/10/06 01:25:12;;;;;;;13.90;8.77;;;;;;;19.39;59.75;100079.25;5074225;28;20191;-72
2023/10/06 01:27:39;;;;;;;16.23;8.70;;;;;;;19.44;60.07;100086.63;5074210;28;20184;-72
2023/10/06 01:30:18;;;;;;;17.37;8.63;;;;;;;19.60;59.71;100072.41;5074337;28;20202;-72
2023/10/06 01:32:45;;;;;;;15.33;9.07;;;;;;;19.66;58.73;100083.03;5073802;28;20642;-71
2023/10/06 01:35:13;;;;;;;13.03;8.70;;;;;;;19.78;58.39;100078.44;5073463;28;20220;-71
2023/10/06 01:37:43;;;;;;;10.27;8.03;;;;;;;19.80;57.27;100080.84;5073533;28;20192;-71
2023/10/06 01:40:24;;;;;;;19.07;8.67;;;;;;;19.82;57.67;100084.16;5073408;28;20192;-70
2023/10/06 01:42:51;;;;;;;16.47;8.60;;;;;;;19.84;56.77;100090.09;5074215;28;20278;-71
2023/10/06 01:45:21;;;;;;;14.30;8.60;;;;;;;19.83;57.09;100091.16;5073699;28;20195;-71
2023/10/06 01:47:54;;;;;;;11.53;7.60;;;;;;;19.73;56.98;100091.78;5073459;28;20180;-70
2023/10/06 01:50:21;;;;;;;22.43;8.13;;;;;;;19.56;57.60;100090.13;5073163;28;20191;-70
2023/10/06 01:52:53;;;;;;;20.03;9.57;;;;;;;19.43;58.75;100096.59;5073344;28;20636;-71
2023/10/06 01:55:23;;;;;;;13.53;7.77;;;;;;;19.41;58.63;100089.81;5073220;28;20314;-71
2023/10/06 01:57:49;;;;;;;20.90;8.63;;;;;;;19.40;59.01;100085.47;5073900;28;20231;-71
2023/10/06 02:00:24;;;;;;;13.97;8.20;;;;;;;19.37;58.73;100081.38;5073852;28;20287;-70
2023/10/06 02:02:51;;;;;;;14.07;8.33;;;;;;;19.24;59.17;100083.53;5073244;28;20647;-72
2023/10/06 02:05:18;;;;;;;15.27;9.20;;;;;;;19.22;59.60;100072.13;5073378;28;20291;-71
2023/10/06 02:07:45;;;;;;;15.97;9.23;;;;;;;19.19;59.66;100073.41;5073063;28;20265;-72
2023/10/06 02:10:15;;;;;;;13.97;8.77;;;;;;;19.16;60.36;100073.88;5073119;28;20282;-72
2023/10/06 02:12:42;;;;;;;16.83;8.60;;;;;;;19.15;59.81;100077.63;5073263;28;20200;-72
2023/10/06 02:15:11;;;;;;;11.93;8.67;;;;;;;19.18;60.33;100087.13;5072951;28;20280;-72
2023/10/06 02:17:38;;;;;;;16.07;8.30;;;;;;;19.26;60.48;100084.09;5072781;28;20227;-72
2023/10/06 02:20:12;;;;;;;16.50;8.70;;;;;;;19.31;59.40;100089.56;5064977;28;20203;-72
2023/10/06 02:22:38;;;;;;;13.53;8.70;;;;;;;19.22;59.75;100088.28;5052459;28;20188;-72
2023/10/06 02:25:13;;;;;;;14.97;8.40;;;;;;;19.17;60.51;100088.19;5052703;28;20671;-72
2023/10/06 02:27:47;;;;;;;13.93;9.43;;;;;;;19.15;59.59;100098.38;5052421;28;20564;-72
2023/10/06 02:30:15;;;;;;;19.70;8.43;;;;;;;19.10;60.30;100090.16;5052694;28;20192;-72
2023/10/06 02:32:43;;;;;;;18.90;8.50;;;;;;;19.09;60.42;100088.53;5052640;28;20189;-71
2023/10/06 02:35:10;;;;;;;18.57;8.93;;;;;;;19.13;60.63;100100.47;5052179;28;20694;-69
2023/10/06 02:37:36;;;;;;;14.07;8.43;;;;;;;19.16;60.54;100095.44;5052373;28;20463;-72
2023/10/06 02:40:11;;;;;;;16.00;9.03;;;;;;;19.23;59.78;100101.53;5052400;28;20200;-71
2023/10/06 02:42:43;;;;;;;15.93;8.90;;;;;;;19.29;60.75;100089.00;5052529;28;20197;-72
2023/10/06 02:45:16;;;;;;;19.43;8.40;;;;;;;19.43;59.15;100095.75;5052601;28;20303;-71
2023/10/06 02:47:43;;;;;;;13.87;9.23;;;;;;;19.50;58.92;100097.28;5052025;28;20189;-71
2023/10/06 02:50:17;;;;;;;14.47;7.53;;;;;;;19.51;59.85;100098.06;5052316;28;20193;-71
2023/10/06 02:52:46;;;;;;;15.10;7.77;;;;;;;19.24;59.76;100094.28;5052737;28;20204;-71
2023/10/06 02:55:19;;;;;;;14.40;8.10;;;;;;;19.03;60.36;100094.88;5051962;28;20691;-72
2023/10/06 02:57:50;;;;;;;10.43;7.80;;;;;;;18.76;61.53;100093.72;5052341;28;20234;-72
2023/10/06 03:00:32;;;;;;;15.97;8.73;;;;;;;18.67;61.65;100095.13;5052601;28;20191;-72
2023/10/06 03:03:03;;;;;;;13.37;8.40;;;;;;;18.38;63.86;100090.66;5052282;28;20254;-71
2023/10/06 03:05:32;;;;;;;14.20;8.30;;;;;;;18.14;64.04;100083.56;5052220;28;20200;-70
2023/10/06 03:08:00;;;;;;;14.03;8.17;;;;;;;17.90;64.51;100082.66;5052276;28;20250;-71
2023/10/06 03:10:30;;;;;;;17.23;8.57;;;;;;;17.77;64.59;100077.47;5052172;28;20255;-71
2023/10/06 03:12:57;;;;;;;17.00;8.03;;;;;;;17.50;66.05;100069.97;5051806;28;20194;-71
2023/10/06 03:15:35;;;;;;;13.30;8.67;;;;;;;17.32;66.98;100072.69;5051793;28;20220;-71
2023/10/06 03:18:03;;;;;;;13.23;8.40;;;;;;;17.19;67.59;100078.22;5051388;28;20274;-71
2023/10/06 03:20:40;;;;;;;13.90;8.63;;;;;;;17.22;68.27;100077.72;5062964;28;20241;-70
2023/10/06 03:23:24;;;;;;;16.90;9.37;;;;;;;17.18;67.28;100081.91;5071576;28;20196;-71
2023/10/06 03:25:53;;;;;;;10.33;8.60;;;;;;;17.05;68.10;100082.06;5071889;28;20196;-71
2023/10/06 03:28:23;;;;;;;16.70;8.40;;;;;;;16.95;68.50;100076.41;5071358;28;20242;-71
2023/10/06 03:30:52;;;;;;;16.40;8.93;;;;;;;16.92;69.02;100075.00;5071244;28;20237;-71
2023/10/06 03:33:20;;;;;;;12.00;9.17;;;;;;;16.94;69.79;100074.78;5071087;28;20199;-71
2023/10/06 03:35:47;;;;;;;12.97;7.70;;;;;;;17.02;68.70;100082.53;5070289;28;20435;-72
2023/10/06 03:38:33;;;;;;;15.47;8.90;;;;;;;17.19;68.46;100084.38;5071693;28;20191;-71
2023/10/06 03:41:12;;;;;;;15.67;9.20;;;;;;;17.35;67.51;100066.88;5071140;28;20282;-71
2023/10/06 03:43:47;;;;;;;13.70;8.43;;;;;;;17.42;67.34;100072.97;5071482;28;20187;-71
2023/10/06 03:46:18;;;;;;;20.77;10.20;;;;;;;17.45;67.33;100072.53;5071272;28;20196;-71
2023/10/06 03:48:48;;;;;;;22.23;8.77;;;;;;;17.44;67.78;100073.59;5071963;28;20214;-72
2023/10/06 03:51:15;;;;;;;18.30;9.33;;;;;;;17.65;67.45;100079.31;5070910;28;20595;-71
2023/10/06 03:53:44;;;;;;;14.53;8.03;;;;;;;17.83;66.54;100078.41;5071533;28;20196;-71
2023/10/06 03:56:12;;;;;;;19.10;8.60;;;;;;;17.96;65.92;100086.28;5071000;28;20306;-71
2023/10/06 03:58:39;;;;;;;22.77;9.50;;;;;;;18.07;65.32;100082.81;5071357;28;20200;-71
2023/10/06 04:01:09;;;;;;;20.10;8.80;;;;;;;18.13;64.95;100082.72;5071398;28;20283;-71
2023/10/06 04:03:38;;;;;;;21.10;9.13;;;;;;;18.13;64.97;100084.59;5071583;28;20197;-71
2023/10/06 04:06:05;;;;;;;25.13;10.37;;;;;;;18.11;64.89;100084.00;5070844;28;20286;-71
2023/10/06 04:08:32;;;;;;;29.63;9.77;;;;;;;18.12;65.63;100081.09;5071033;28;20717;-71
2023/10/06 04:10:58;;;;;;;23.17;8.53;;;;;;;18.16;65.37;100094.88;5071277;28;20192;-70
2023/10/06 04:13:25;;;;;;;32.03;9.30;;;;;;;18.30;64.88;100099.03;5071166;28;20192;-71
2023/10/06 04:15:53;;;;;;;14.17;8.93;;;;;;;18.41;65.59;100100.94;5071101;28;20223;-71
2023/10/06 04:18:22;;;;;;;19.80;8.50;;;;;;;18.50;65.21;100099.56;5071054;28;20700;-70
2023/10/06 04:20:51;;;;;;;15.60;8.10;;;;;;;18.69;64.59;100104.59;5057036;28;20193;-71
2023/10/06 04:23:22;;;;;;;16.20;7.70;;;;;;;19.06;62.72;100108.69;5051153;28;20265;-70
2023/10/06 04:25:50;;;;;;;9.10;7.90;;;;;;;19.22;60.65;100117.91;5051017;28;20219;-71
2023/10/06 04:28:19;;;;;;;18.77;9.43;;;;;;;19.24;60.96;100113.16;5050717;28;20619;-71
2023/10/06 04:30:47;;;;;;;10.57;7.40;;;;;;;19.20;61.93;100114.66;5050481;28;20690;-71
2023/10/06 04:33:14;;;;;;;39.57;9.67;;;;;;;18.97;61.09;100123.56;5050433;28;20188;-71
2023/10/06 04:35:47;;;;;;;17.73;7.93;;;;;;;18.89;61.96;100125.78;5050051;28;20220;-71
2023/10/06 04:38:15;;;;;;;30.53;10.13;;;;;;;18.77;61.85;100124.97;5051116;28;20244;-72
2023/10/06 04:40:42;;;;;;;9.40;7.23;;;;;;;18.58;62.55;100131.50;5049917;28;20498;-70
2023/10/06 04:43:09;;;;;;;20.57;8.53;;;;;;;18.33;64.93;100136.22;5050274;28;20204;-71
2023/10/06 04:45:38;;;;;;;13.47;7.47;;;;;;;18.37;64.16;100132.03;5051552;28;20290;-71
2023/10/06 04:48:07;;;;;;;30.00;8.53;;;;;;;18.55;62.96;100131.97;5054271;28;20199;-71
2023/10/06 04:50:35;;;;;;;14.03;8.47;;;;;;;18.46;63.17;100136.84;5054229;28;20198;-71
2023/10/06 04:53:01;;;;;;;26.83;9.63;;;;;;;18.26;64.24;100138.19;5054220;28;20195;-71
2023/10/06 04:55:31;;;;;;;22.00;7.90;;;;;;;18.06;64.99;100141.19;5054011;28;20223;-71
2023/10/06 04:57:58;;;;;;;17.13;7.40;;;;;;;17.91;64.52;100138.06;5054020;28;20228;-71
2023/10/06 05:00:27;;;;;;;16.83;8.70;;;;;;;17.72;65.33;100147.19;5053817;28;20224;-71
2023/10/06 05:02:54;;;;;;;11.00;7.90;;;;;;;17.54;66.63;100141.84;5053935;28;20201;-72
2023/10/06 05:05:21;;;;;;;18.37;7.83;;;;;;;17.64;66.15;100139.44;5053892;28;20263;-63
2023/10/06 05:07:48;;;;;;;16.47;8.57;;;;;;;17.77;65.63;100146.53;5058883;28;20193;-64
2023/10/06 05:10:18;;;;;;;18.47;8.47;;;;;;;17.84;66.62;100147.28;5073779;28;20726;-64
2023/10/06 05:12:46;;;;;;;29.90;11.60;;;;;;;17.99;65.02;100147.66;5074173;28;20204;-64
2023/10/06 05:15:23;;;;;;;42.97;10.03;;;;;;;18.33;63.44;100155.84;5073483;28;20224;-64
2023/10/06 05:17:55;;;;;;;18.67;8.63;;;;;;;18.58;63.02;100155.72;5069465;28;20225;-64
2023/10/06 05:20:22;;;;;;;23.97;9.53;;;;;;;18.45;63.66;100153.22;5063472;28;20188;-64
2023/10/06 05:22:50;;;;;;;64.77;12.27;;;;;;;18.50;62.86;100156.06;5073348;28;20263;-64
2023/10/06 05:25:19;;;;;;;16.43;8.77;;;;;;;18.56;62.87;100163.19;5073494;28;20223;-64
2023/10/06 05:27:50;;;;;;;18.30;8.73;;;;;;;18.67;62.74;100160.50;5072237;28;20193;-63
2023/10/06 05:30:18;;;;;;;18.07;8.47;;;;;;;18.71;62.14;100166.28;5072335;28;20240;-63
2023/10/06 05:32:44;;;;;;;17.17;8.80;;;;;;;18.71;62.53;100163.59;5071434;28;20194;-64
2023/10/06 05:35:13;;;;;;;14.90;8.73;;;;;;;18.92;62.90;100163.00;5069619;28;20681;-63
2023/10/06 05:37:44;;;;;;;14.13;8.23;;;;;;;18.97;61.95;100166.66;5070009;28;20198;-66
2023/10/06 05:40:20;;;;;;;22.40;9.57;;;;;;;19.23;61.92;100165.34;5070559;28;20623;-64
2023/10/06 05:42:49;;;;;;;17.60;9.43;;;;;;;19.75;59.38;100164.34;5067753;28;20222;-64
2023/10/06 05:45:18;;;;;;;21.87;8.73;;;;;;;20.07;58.80;100168.22;5070300;28;20206;-64
2023/10/06 05:47:46;;;;;;;42.40;10.03;;;;;;;20.15;57.74;100166.00;5068531;28;20192;-65
2023/10/06 05:50:18;;;;;;;14.27;9.17;;;;;;;20.06;58.02;100166.59;5068807;28;20234;-63
2023/10/06 05:52:51;;;;;;;21.27;8.37;;;;;;;20.47;58.28;100163.59;5069814;28;20187;-63
2023/10/06 05:55:20;;;;;;;28.57;9.30;;;;;;;20.74;56.00;100170.00;5067206;28;20759;-62
2023/10/06 05:57:52;;;;;;;16.17;7.97;;;;;;;20.80;55.80;100169.03;5066626;28;20229;-63
2023/10/06 06:00:24;;;;;;;28.63;9.13;;;;;;;20.82;56.15;100172.28;5068538;28;20184;-64
2023/10/06 06:02:52;;;;;;;21.23;9.20;;;;;;;21.28;56.70;100177.38;5067185;28;20192;-63
2023/10/06 06:05:19;;;;;;;19.30;8.80;;;;;;;21.57;53.19;100172.63;5057987;28;20579;-64
2023/10/06 06:07:46;;;;;;;20.43;7.97;;;;;;;21.51;54.49;100166.31;5060610;28;20195;-65
2023/10/06 06:10:14;;;;;;;21.40;9.00;;;;;;;21.69;52.46;100174.13;5058503;28;20196;-65
2023/10/06 06:12:41;;;;;;;14.77;8.33;;;;;;;21.97;53.85;100176.66;5058858;28;20254;-65
2023/10/06 06:15:12;;;;;;;21.10;8.03;;;;;;;22.29;50.87;100180.25;5059778;28;20192;-64
2023/10/06 06:17:40;;;;;;;31.53;9.20;;;;;;;22.59;49.79;100179.78;5059356;28;20765;-66
2023/10/06 06:20:08;;;;;;;23.03;9.10;;;;;;;22.89;50.75;100172.72;5061007;28;20196;-66
2023/10/06 06:22:37;;;;;;;20.73;10.33;;;;;;;23.19;49.40;100182.97;5049160;28;20203;-66
2023/10/06 06:25:06;;;;;;;14.00;8.60;;;;;;;23.26;48.92;100176.25;5049912;28;20256;-65
2023/10/06 06:27:33;;;;;;;13.63;7.37;;;;;;;23.32;48.59;100180.63;5068654;28;20240;-65
2023/10/06 06:30:00;;;;;;;18.07;8.40;;;;;;;23.55;48.18;100179.41;5066518;28;20272;-66
2023/10/06 06:32:29;;;;;;;25.73;7.97;;;;;;;23.87;47.05;100177.38;5060031;28;20245;-65
2023/10/06 06:34:55;;;;;;;23.87;8.87;;;;;;;24.16;45.83;100186.72;5058082;28;20216;-65
2023/10/06 06:37:23;;;;;;;17.70;8.07;;;;;;;24.17;46.23;100182.91;5060672;28;20245;-64
2023/10/06 06:39:50;;;;;;;15.83;7.60;;;;;;;24.30;45.37;100188.66;5069145;28;20809;-65
2023/10/06 06:42:16;;;;;;;13.27;7.50;;;;;;;24.51;45.00;100184.88;5065908;28;20667;-64
2023/10/06 06:44:47;;;;;;;10.40;7.57;;;;;;;24.70;44.31;100199.63;5070010;28;20206;-64
2023/10/06 06:47:16;;;;;;;15.40;8.30;;;;;;;24.87;43.90;100194.75;5069622;28;20199;-65
2023/10/06 06:49:44;;;;;;;19.13;8.80;;;;;;;25.02;43.65;100187.69;5064683;28;20243;-66
2023/10/06 06:52:12;;;;;;;22.30;8.60;;;;;;;25.13;43.07;100189.28;5052611;28;20271;-64
2023/10/06 06:54:46;;;;;;;12.73;8.43;;;;;;;25.17;43.44;100193.91;5060329;28;20195;-64
2023/10/06 06:57:15;;;;;;;13.87;7.87;;;;;;;25.22;43.25;100185.72;5058925;28;20200;-65
2023/10/06 06:59:43;;;;;;;18.17;8.53;;;;;;;25.27;43.11;100193.09;5057723;28;20238;-65
2023/10/06 07:02:10;;;;;;;9.80;7.03;;;;;;;25.33;42.64;100181.13;5062127;28;20295;-65
2023/10/06 07:04:37;;;;;;;22.30;8.57;;;;;;;25.55;42.59;100192.50;5064593;28;20220;-65
2023/10/06 07:07:05;;;;;;;24.57;8.03;;;;;;;25.67;43.52;100188.38;5058654;28;20280;-63
2023/10/06 07:09:32;;;;;;;18.53;8.37;;;;;;;25.71;42.42;100188.63;5056452;28;20283;-64
2023/10/06 07:11:58;;;;;;;11.43;7.13;;;;;;;25.69;42.49;100186.22;5058782;28;20222;-65
2023/10/06 07:14:27;;;;;;;17.43;7.97;;;;;;;25.72;42.54;100184.84;5057337;28;20671;-65
2023/10/06 07:16:54;;;;;;;13.13;8.10;;;;;;;25.85;42.94;100189.66;5051485;28;20259;-65
2023/10/06 07:19:21;;;;;;;22.50;7.97;;;;;;;25.86;42.00;100191.28;5055196;28;20257;-66
2023/10/06 07:21:49;;;;;;;13.10;7.10;;;;;;;25.94;42.67;100188.03;5057043;28;20219;-64
2023/10/06 07:24:18;;;;;;;13.77;7.13;;;;;;;26.02;42.16;100184.72;5058233;28;20192;-66
2023/10/06 07:26:45;;;;;;;10.60;7.07;;;;;;;25.89;42.41;100185.31;5058788;28;20573;-64
2023/10/06 07:29:12;;;;;;;12.77;7.10;;;;;;;25.96;42.65;100188.56;5063423;28;20675;-64
2023/10/06 07:31:38;;;;;;;14.80;7.87;;;;;;;26.02;43.57;100192.88;5068984;28;20245;-63
2023/10/06 07:34:05;;;;;;;19.83;7.37;;;;;;;26.03;42.87;100189.06;5068764;28;20282;-64
2023/10/06 07:36:35;;;;;;;20.90;8.00;;;;;;;25.94;42.63;100183.41;5068491;28;20215;-63
2023/10/06 07:39:03;;;;;;;14.57;7.73;;;;;;;25.91;43.28;100183.09;5068620;28;20225;-64
2023/10/06 07:41:32;;;;;;;17.07;8.00;;;;;;;25.93;42.21;100180.94;5068791;28;20277;-65
2023/10/06 07:43:59;;;;;;;12.57;7.00;;;;;;;25.99;42.29;100188.00;5068623;28;20196;-65
2023/10/06 07:46:26;;;;;;;17.27;7.33;;;;;;;26.12;41.78;100179.22;5068681;28;20261;-65
2023/10/06 07:48:55;;;;;;;12.57;6.97;;;;;;;26.35;40.21;100181.25;5057282;28;20188;-64
2023/10/06 07:51:23;;;;;;;11.00;7.03;;;;;;;26.47;39.69;100181.72;5053798;28;20196;-66
2023/10/06 07:53:50;;;;;;;13.20;7.00;;;;;;;26.47;39.29;100188.00;5061901;28;20196;-64
2023/10/06 07:56:18;;;;;;;11.23;7.10;;;;;;;26.04;39.31;100177.09;5068055;28;20212;-64
2023/10/06 07:58:46;;;;;;;9.70;6.57;;;;;;;25.71;40.46;100177.72;5067563;28;20713;-64
2023/10/06 08:01:13;;;;;;;15.07;7.67;;;;;;;25.59;40.66;100179.97;5063108;28;20184;-63
2023/10/06 08:03:41;;;;;;;14.63;8.00;;;;;;;25.54;40.63;100175.34;5065442;28;20274;-64
2023/10/06 08:06:10;;;;;;;24.37;7.27;;;;;;;25.48;41.61;100181.09;5058160;28;20823;-64
2023/10/06 08:08:37;;;;;;;15.20;7.60;;;;;;;25.13;41.63;100181.13;5061095;28;20295;-64
2023/10/06 08:11:05;;;;;;;9.80;7.10;;;;;;;25.33;41.81;100175.69;5059732;28;20192;-66
2023/10/06 08:13:33;;;;;;;19.53;7.43;;;;;;;25.49;41.60;100178.09;5058576;28;20748;-66
2023/10/06 08:16:01;;;;;;;11.63;6.63;;;;;;;25.52;41.39;100174.81;5069842;28;20255;-65
2023/10/06 08:18:29;;;;;;;12.63;7.20;;;;;;;25.34;41.44;100174.59;5068782;28;20913;-65
2023/10/06 08:20:56;;;;;;;13.87;7.20;;;;;;;25.46;41.59;100169.66;5055665;28;20687;-65
2023/10/06 08:23:23;;;;;;;17.80;7.20;;;;;;;25.31;41.58;100172.44;5071829;28;20203;-66
2023/10/06 08:25:52;;;;;;;17.37;7.80;;;;;;;25.23;41.60;100153.94;5070778;28;20192;-66
2023/10/06 08:28:19;;;;;;;23.23;7.70;;;;;;;25.25;41.78;100173.50;5064679;28;20189;-65
2023/10/06 08:30:46;;;;;;;12.63;6.63;;;;;;;25.39;41.71;100169.16;5069603;28;20814;-66
2023/10/06 08:33:14;;;;;;;8.23;6.43;;;;;;;25.47;41.64;100161.22;5073065;28;20192;-65
2023/10/06 08:35:41;;;;;;;13.63;7.10;;;;;;;25.35;41.81;100168.06;5072857;28;20192;-66
2023/10/06 08:38:09;;;;;;;14.47;6.53;;;;;;;25.53;42.15;100159.31;5062862;28;20199;-65
2023/10/06 08:40:38;;;;;;;11.60;6.93;;;;;;;25.74;41.70;100155.41;5061149;28;20196;-65
2023/10/06 08:43:07;;;;;;;19.53;7.70;;;;;;;25.69;41.69;100166.31;5067823;28;20325;-64
2023/10/06 08:45:40;;;;;;;8.90;6.80;;;;;;;25.91;42.05;100153.97;5073401;28;20279;-65
2023/10/06 08:48:10;;;;;;;9.07;6.40;;;;;;;25.95;40.58;100163.25;5072483;28;20754;-67
2023/10/06 08:50:41;;;;;;;14.13;6.67;;;;;;;26.12;40.32;100163.69;5073267;28;20854;-66
2023/10/06 08:53:13;;;;;;;15.83;7.53;;;;;;;26.06;40.54;100161.28;5073280;28;20635;-67
2023/10/06 08:55:41;;;;;;;13.40;7.27;;;;;;;26.11;40.95;100161.25;5073057;28;20237;-65
2023/10/06 08:58:08;;;;;;;15.30;7.80;;;;;;;26.27;40.86;100165.50;5073038;28;20229;-65
2023/10/06 09:00:36;;;;;;;21.27;8.03;;;;;;;26.40;40.42;100159.44;5073414;28;20187;-66
2023/10/06 09:03:08;;;;;;;12.13;8.10;;;;;;;26.45;40.22;100159.41;5072931;28;20200;-64
2023/10/06 09:05:36;;;;;;;11.97;7.20;;;;;;;26.54;39.80;100149.53;5067177;28;20276;-59
2023/10/06 09:08:07;;;;;;;15.30;8.00;;;;;;;26.69;39.70;100163.06;5071500;28;20663;-61
2023/10/06 09:10:35;;;;;;;18.10;7.87;;;;;;;26.78;39.88;100162.16;5071607;28;20686;-61
2023/10/06 09:13:04;;;;;;;12.23;7.23;;;;;;;26.64;39.28;100149.47;5071390;28;20249;-60
2023/10/06 09:15:31;;;;;;;41.30;8.97;;;;;;;26.40;39.54;100146.63;5071364;28;20206;-60
2023/10/06 09:17:59;;;;;;;12.33;7.33;;;;;;;26.42;39.78;100146.34;5071796;28;20706;-60
2023/10/06 09:20:30;;;;;;;14.13;7.40;;;;;;;26.39;40.41;100141.47;5061703;28;20287;-60
2023/10/06 09:22:58;;;;;;;15.00;7.33;;;;;;;26.51;39.67;100145.47;5068084;28;20714;-60
2023/10/06 09:25:27;;;;;;;14.40;7.17;;;;;;;26.63;39.86;100153.31;5070199;28;20196;-60
2023/10/06 09:28:05;;;;;;;13.87;7.33;;;;;;;26.88;39.71;100144.91;5073151;28;20282;-67
2023/10/06 09:30:46;;;;;;;12.57;7.80;;;;;;;27.01;39.28;100149.69;5073970;28;20224;-67
2023/10/06 09:33:14;;;;;;;22.83;7.70;;;;;;;26.95;39.05;100139.94;5072756;28;20245;-67
2023/10/06 09:35:43;;;;;;;14.27;7.90;;;;;;;27.00;39.44;100142.59;5073707;28;20204;-66
2023/10/06 09:38:13;;;;;;;13.87;7.80;;;;;;;26.93;39.68;100136.66;5072712;28;20657;-66
2023/10/06 09:40:45;;;;;;;9.83;7.03;;;;;;;27.11;39.60;100134.03;5063896;28;20206;-65
2023/10/06 09:43:15;;;;;;;16.43;7.13;;;;;;;27.21;38.98;100133.16;5063021;28;20189;-66
2023/10/06 09:45:43;;;;;;;12.43;7.93;;;;;;;27.38;38.51;100130.78;5061344;28;20181;-67
2023/10/06 09:48:13;;;;;;;18.90;8.03;;;;;;;27.49;38.48;100129.56;5073144;28;20286;-67
2023/10/06 09:50:43;;;;;;;18.73;7.83;;;;;;;27.55;38.38;100122.91;5072067;28;20188;-66
2023/10/06 09:53:13;;;;;;;13.80;7.67;;;;;;;27.48;38.19;100125.22;5073304;28;20278;-65
2023/10/06 09:55:41;;;;;;;14.23;6.70;;;;;;;27.48;38.49;100126.00;5072569;28;20281;-66
2023/10/06 09:58:09;;;;;;;18.93;7.77;;;;;;;27.47;38.33;100120.84;5073101;28;20323;-66
2023/10/06 10:00:40;;;;;;;32.43;8.80;;;;;;;27.52;38.17;100118.06;5072852;28;20673;-67
2023/10/06 10:03:08;;;;;;;13.67;7.40;;;;;;;27.63;38.14;100111.34;5073518;28;20185;-66
2023/10/06 10:05:39;;;;;;;10.07;6.77;;;;;;;27.68;37.48;100111.31;5072964;28;20200;-66
2023/10/06 10:08:06;;;;;;;16.47;7.20;;;;;;;27.55;37.50;100110.09;5072882;28;20283;-67
2023/10/06 10:10:35;;;;;;;10.47;7.43;;;;;;;27.70;37.86;100103.63;5071927;28;20628;-67
2023/10/06 10:13:31;;;;;;;16.80;7.50;;;;;;;27.85;37.04;100103.47;5071903;28;20338;-66
2023/10/06 10:16:11;;;;;;;12.40;7.77;;;;;;;27.78;36.64;100095.59;5072333;28;20218;-66
2023/10/06 10:18:39;;;;;;;17.03;7.43;;;;;;;27.70;36.47;100103.63;5072377;28;20227;-67
2023/10/06 10:21:11;;;;;;;11.57;7.20;;;;;;;27.73;36.70;100094.84;5055694;28;20192;-67
2023/10/06 10:23:39;;;;;;;14.83;6.80;;;;;;;27.73;36.66;100086.66;5052033;28;20617;-67
2023/10/06 10:26:16;;;;;;;8.63;6.70;;;;;;;27.76;36.66;100086.88;5052155;28;20660;-63
2023/10/06 10:28:44;;;;;;;29.60;8.37;;;;;;;27.88;36.79;100078.28;5052149;28;20543;-66
2023/10/06 10:31:17;;;;;;;12.77;7.03;;;;;;;28.03;36.41;100070.69;5051927;28;20228;-68
2023/10/06 10:33:46;;;;;;;13.83;8.00;;;;;;;28.19;36.03;100074.00;5052271;28;20614;-66
2023/10/06 10:36:20;;;;;;;11.17;6.37;;;;;;;28.15;35.88;100062.84;5052499;28;20663;-66
2023/10/06 10:39:00;;;;;;;12.27;6.60;;;;;;;28.03;35.97;100058.94;5052426;28;20211;-66
2023/10/06 10:41:31;;;;;;;24.70;10.47;;;;;;;28.06;35.99;100058.34;5052824;28;20262;-66
2023/10/06 10:44:04;;;;;;;22.33;8.57;;;;;;;28.07;36.11;100044.41;5052371;28;20271;-67
2023/10/06 10:46:32;;;;;;;16.57;8.17;;;;;;;28.17;36.07;100048.91;5052511;28;20337;-66
2023/10/06 10:49:00;;;;;;;16.30;7.90;;;;;;;28.04;36.13;100033.22;5052348;28;20200;-66
2023/10/06 10:51:27;;;;;;;15.67;7.80;;;;;;;28.09;36.05;100041.38;5052000;28;20246;-66
2023/10/06 10:53:54;;;;;;;13.80;7.30;;;;;;;28.25;35.71;100035.34;5051892;28;20200;-67
2023/10/06 10:56:37;;;;;;;14.27;8.33;;;;;;;28.29;35.78;100019.16;5052013;28;20204;-66
2023/10/06 10:59:08;;;;;;;8.57;7.10;;;;;;;28.27;35.69;100013.19;5049771;28;20284;-68
2023/10/06 11:01:37;;;;;;;15.63;8.17;;;;;;;28.39;35.90;100017.09;5051601;28;20196;-65
2023/10/06 11:04:36;;;;;;;12.77;8.07;;;;;;;28.45;35.72;100017.81;5051994;28;20193;-66
2023/10/06 11:07:15;;;;;;;13.17;9.20;;;;;;;28.54;35.66;100010.56;5052273;28;20648;-66
2023/10/06 11:09:47;;;;;;;14.33;8.53;;;;;;;28.50;35.98;100006.81;5051886;28;20188;-66
2023/10/06 11:12:22;;;;;;;23.27;8.50;;;;;;;28.39;36.26;99997.13;5051325;28;20751;-66
2023/10/06 11:14:51;;;;;;;13.83;8.40;;;;;;;28.42;36.11;99991.09;5051222;28;20284;-65
2023/10/06 11:17:20;;;;;;;8.97;8.17;;;;;;;28.30;36.17;99990.75;5051412;28;20233;-65
2023/10/06 11:19:47;;;;;;;13.73;7.67;;;;;;;28.29;36.30;99986.38;5057110;28;20188;-66
2023/10/06 11:22:19;;;;;;;17.60;8.53;;;;;;;28.17;36.70;99986.84;5071139;28;20726;-65
2023/10/06 11:24:48;;;;;;;14.63;8.70;;;;;;;28.17;36.86;99983.31;5071937;28;20222;-66
2023/10/06 11:27:17;;;;;;;10.23;8.27;;;;;;;28.18;36.73;99980.25;5071238;28;20624;-66